Aérodrome :
LOGIN :

S'inscrire | Disclaimer

   EN    FR    IT 

 










Légende :    VFR   VFR Marginal   IFR   IFR Intensif   IFR Très Intensif
Visi : 
Plafond : 
>= 8 km
>= 3000ft
5 à 8 km
1000 à 3000 ft
1500m à 5 km
500 à 1000 ft
800 à 1500m
200 à 500 ft
< 800m
< 200 ft
Symboles :   Orages  Brouillard  Fortes neiges  Fortes précipitations  Vent > 20 kt
SIGMETs :   Divers  Orages  Givrage  Turbulence  Onde Orograph.  Cendres Volcan.






- Altitude de l'aérodrome : 681 ft
- Code IATA : OSL


ENGM - Oslo Gardermoen

DERNIER METAR :
  • 170020Z 12004KT 9999 FEW014 SCT017 01/M01 Q0976

METARs EXPIRÉS :
  • 162350Z 14005KT 080V190 9999 FEW014 02/M00 Q0976
  • 162320Z 18011KT 9999 FEW016 02/M00 Q0976
  • 162250Z 18010KT 9999 FEW033 01/M00 Q0976
  • 162220Z 17010KT 9999 FEW021 02/M00 Q0976
  • 162150Z 17011KT 9999 SCT018 01/M00 Q0976 NOSIG

AMD TAF ENGM
Valide du 17 à 00h jusqu'au 18 à 00h UTC


1700/1724 16008KT 9999 SCT030
PROB30
TEMPO 1702/1706 BKN014
TEMPO 1705/1718 22015G28KT



MET'MAP, la Météo Aéronautique d'un coup d'oeil ! - Copyright ORBIFLY Décembre 2007 - Disclaimer

ORBIFLY MET'MAP TEAM :

Programmation & Développement : Alexandra Zaïnal
Sur une idée originale de : Baudouin d'Aumeries
Assistance à la programmation : Marc-Olivier Méhu
Soutien technique & logistique : Manuel Goepfert

Contact : metmap@orbifly.com




SOURCES & CREDITS :

   NOAA